Time;durP1;ratioP1;P1;durP2;ratioP2;P2;SDS_P1;SDS_P2;PMS_P1;PMS_P2;Temp;Humidity;BMP_temperature;BMP_pressure;BME280_temperature;BME280_humidity;BME280_pressure;Samples;Min_cycle;Max_cycle;Signal;HPM_P1;HPM_P2
2023/01/01 00:01:08;;;;;;;;;2.00;2.00;;;;;;;;4986681;28;8897;-80
2023/01/01 00:03:37;;;;;;;;;2.00;2.00;;;;;;;;5015219;28;8842;-80
2023/01/01 00:06:08;;;;;;;;;2.25;2.00;;;;;;;;4991549;28;9008;-80
2023/01/01 00:08:36;;;;;;;;;2.00;2.00;;;;;;;;5019723;28;8910;-81
2023/01/01 00:11:04;;;;;;;;;1.00;1.00;;;;;;;;4971181;28;9007;-80
2023/01/01 00:13:32;;;;;;;;;0.75;0.50;;;;;;;;5015796;28;8855;-80
2023/01/01 00:16:05;;;;;;;;;1.00;1.00;;;;;;;;5048390;28;9099;-80
2023/01/01 00:18:33;;;;;;;;;3.75;2.00;;;;;;;;5004500;28;8842;-80
2023/01/01 00:21:05;;;;;;;;;1.75;1.75;;;;;;;;5027313;28;8856;-80
2023/01/01 00:23:34;;;;;;;;;2.75;2.75;;;;;;;;5022832;28;8872;-80
2023/01/01 00:26:02;;;;;;;;;2.00;2.00;;;;;;;;5032983;28;8897;-80
2023/01/01 00:28:54;;;;;;;;;2.75;2.75;;;;;;;;5016351;28;8853;-79
2023/01/01 00:31:24;;;;;;;;;2.00;2.00;;;;;;;;4984765;28;8978;-80
2023/01/01 00:33:54;;;;;;;;;2.00;2.00;;;;;;;;5059714;28;8832;-80
2023/01/01 00:36:25;;;;;;;;;3.00;3.00;;;;;;;;5059016;28;9019;-80
2023/01/01 00:38:53;;;;;;;;;3.00;3.00;;;;;;;;5031187;28;8863;-80
2023/01/01 00:41:20;;;;;;;;;3.00;3.00;;;;;;;;5005937;28;8852;-80
2023/01/01 00:43:48;;;;;;;;;3.75;3.75;;;;;;;;5029583;28;8822;-79
2023/01/01 00:46:15;;;;;;;;;5.00;4.00;;;;;;;;5013518;28;8846;-79
2023/01/01 00:48:43;;;;;;;;;3.50;3.50;;;;;;;;5000401;28;9309;-80
2023/01/01 00:51:11;;;;;;;;;3.00;3.00;;;;;;;;5003944;28;8865;-80
2023/01/01 00:53:40;;;;;;;;;4.25;3.25;;;;;;;;5026264;28;8868;-80
2023/01/01 00:56:08;;;;;;;;;2.25;1.75;;;;;;;;5026049;28;8888;-79
2023/01/01 00:58:35;;;;;;;;;3.00;3.00;;;;;;;;5065233;28;8877;-79
2023/01/01 01:01:02;;;;;;;;;4.75;3.00;;;;;;;;5079551;28;9211;-80
2023/01/01 01:03:30;;;;;;;;;6.00;3.00;;;;;;;;5063945;28;9612;-79
2023/01/01 01:05:58;;;;;;;;;2.00;2.00;;;;;;;;5082812;28;8923;-80
2023/01/01 01:08:27;;;;;;;;;3.25;3.25;;;;;;;;5083317;28;8864;-79
2023/01/01 01:11:02;;;;;;;;;2.50;2.25;;;;;;;;5083430;28;8836;-80
2023/01/01 01:13:29;;;;;;;;;2.50;2.00;;;;;;;;5061178;28;9008;-79
2023/01/01 01:15:57;;;;;;;;;3.00;3.00;;;;;;;;5079106;28;8965;-80
2023/01/01 01:18:24;;;;;;;;;2.00;2.00;;;;;;;;5080550;28;8875;-79
2023/01/01 01:20:52;;;;;;;;;2.75;2.50;;;;;;;;5084732;28;8878;-80
2023/01/01 01:23:20;;;;;;;;;4.75;2.75;;;;;;;;5081220;28;8847;-79
2023/01/01 01:25:48;;;;;;;;;2.75;2.75;;;;;;;;5081884;28;8838;-78
2023/01/01 01:28:17;;;;;;;;;2.00;2.00;;;;;;;;5065867;28;8915;-79
2023/01/01 01:30:45;;;;;;;;;0.75;0.75;;;;;;;;5062835;28;8851;-79
2023/01/01 01:33:14;;;;;;;;;2.50;2.50;;;;;;;;5062760;28;8868;-80
2023/01/01 01:35:42;;;;;;;;;3.00;3.00;;;;;;;;5080853;28;8818;-79
2023/01/01 01:38:10;;;;;;;;;3.00;3.00;;;;;;;;5080479;28;8854;-80
2023/01/01 01:40:43;;;;;;;;;2.25;2.25;;;;;;;;5086281;28;8856;-79
2023/01/01 01:43:20;;;;;;;;;3.50;3.50;;;;;;;;5084498;28;8848;-79
2023/01/01 01:45:49;;;;;;;;;2.50;2.50;;;;;;;;5078647;28;8846;-79
2023/01/01 01:48:18;;;;;;;;;4.50;2.25;;;;;;;;5068455;28;8836;-80
2023/01/01 01:50:47;;;;;;;;;3.25;2.00;;;;;;;;5080346;28;8854;-80
2023/01/01 01:53:17;;;;;;;;;3.00;3.00;;;;;;;;5076812;28;8876;-79
2023/01/01 01:55:48;;;;;;;;;1.75;1.75;;;;;;;;5079052;28;8847;-79
2023/01/01 01:58:17;;;;;;;;;5.00;3.00;;;;;;;;5079459;28;9005;-79
2023/01/01 02:00:46;;;;;;;;;2.25;2.25;;;;;;;;5061528;27;8874;-79
2023/01/01 02:03:16;;;;;;;;;3.00;3.00;;;;;;;;5081672;28;8842;-80
2023/01/01 02:05:44;;;;;;;;;4.50;4.50;;;;;;;;5079660;28;8869;-79
2023/01/01 02:08:14;;;;;;;;;5.50;3.75;;;;;;;;5062493;28;8874;-79
2023/01/01 02:10:42;;;;;;;;;4.25;3.00;;;;;;;;5049053;28;8829;-79
2023/01/01 02:13:09;;;;;;;;;3.50;3.00;;;;;;;;5062424;28;8908;-80
2023/01/01 02:15:42;;;;;;;;;4.50;4.50;;;;;;;;5064601;28;8993;-80
2023/01/01 02:18:13;;;;;;;;;3.75;3.00;;;;;;;;5060986;28;8848;-78
2023/01/01 02:20:47;;;;;;;;;4.00;4.00;;;;;;;;5084289;28;8844;-80
2023/01/01 02:23:43;;;;;;;;;4.50;3.00;;;;;;;;5061407;28;8847;-79
2023/01/01 02:26:23;;;;;;;;;6.50;2.00;;;;;;;;5076797;28;8822;-79
2023/01/01 02:29:02;;;;;;;;;3.25;3.25;;;;;;;;5087507;28;8826;-79
2023/01/01 02:31:34;;;;;;;;;3.25;3.25;;;;;;;;5081116;28;8887;-79
2023/01/01 02:34:03;;;;;;;;;4.00;3.25;;;;;;;;5082241;28;8862;-79
2023/01/01 02:36:33;;;;;;;;;2.00;2.00;;;;;;;;5063380;28;8846;-79
2023/01/01 02:39:03;;;;;;;;;3.00;3.00;;;;;;;;5086617;28;8823;-80
2023/01/01 02:41:37;;;;;;;;;4.50;4.00;;;;;;;;5081591;28;8918;-79
2023/01/01 02:44:06;;;;;;;;;3.75;3.75;;;;;;;;5061756;28;9667;-80
2023/01/01 02:46:36;;;;;;;;;4.25;3.75;;;;;;;;5078731;28;8842;-80
2023/01/01 02:49:05;;;;;;;;;2.00;2.00;;;;;;;;5075524;28;8862;-82
2023/01/01 02:51:42;;;;;;;;;4.50;3.00;;;;;;;;5075567;28;8866;-80
2023/01/01 02:54:15;;;;;;;;;3.50;3.00;;;;;;;;5063185;28;8845;-79
2023/01/01 02:56:46;;;;;;;;;3.25;3.25;;;;;;;;5063828;28;8867;-79
2023/01/01 03:02:17;;;;;;;;;4.00;4.00;;;;;;;;5062403;28;8842;-81
2023/01/01 03:04:54;;;;;;;;;3.50;3.50;;;;;;;;5064085;28;8850;-80
2023/01/01 03:07:29;;;;;;;;;2.75;2.75;;;;;;;;5083578;28;8848;-79
2023/01/01 03:10:02;;;;;;;;;5.75;5.75;;;;;;;;5081731;28;8878;-79
2023/01/01 03:12:41;;;;;;;;;6.75;3.00;;;;;;;;5082564;28;8874;-80
2023/01/01 03:15:19;;;;;;;;;3.25;3.00;;;;;;;;5082685;28;9699;-80
2023/01/01 03:17:51;;;;;;;;;3.25;3.25;;;;;;;;5080603;28;8886;-80
2023/01/01 03:20:21;;;;;;;;;3.50;3.50;;;;;;;;5062587;28;9853;-80
2023/01/01 03:22:51;;;;;;;;;3.00;3.00;;;;;;;;5083971;28;8854;-79
2023/01/01 03:25:21;;;;;;;;;4.50;3.00;;;;;;;;5080048;28;8879;-80
2023/01/01 03:27:51;;;;;;;;;4.00;4.00;;;;;;;;5080096;28;9636;-79
2023/01/01 03:30:22;;;;;;;;;4.00;4.00;;;;;;;;5080492;28;8865;-80
2023/01/01 03:33:02;;;;;;;;;4.25;4.25;;;;;;;;5080295;28;8842;-80
2023/01/01 03:35:35;;;;;;;;;4.75;4.75;;;;;;;;5058340;28;8861;-78
2023/01/01 03:38:06;;;;;;;;;3.50;3.25;;;;;;;;5081216;28;8880;-79
2023/01/01 03:40:38;;;;;;;;;3.50;3.50;;;;;;;;5082986;28;8922;-80
2023/01/01 03:43:10;;;;;;;;;3.50;3.50;;;;;;;;5077439;28;9118;-79
2023/01/01 03:45:42;;;;;;;;;3.25;3.25;;;;;;;;5041324;28;8852;-80
2023/01/01 03:48:09;;;;;;;;;4.00;4.00;;;;;;;;5064970;28;8855;-80
2023/01/01 03:50:47;;;;;;;;;4.00;4.00;;;;;;;;5082539;28;8899;-80
2023/01/01 03:53:22;;;;;;;;;6.75;5.50;;;;;;;;5076989;28;8909;-80
2023/01/01 03:55:54;;;;;;;;;3.50;3.50;;;;;;;;5060819;28;8842;-79
2023/01/01 03:58:27;;;;;;;;;6.00;4.00;;;;;;;;5080520;28;8883;-80
2023/01/01 04:00:57;;;;;;;;;6.00;4.00;;;;;;;;5082830;28;8868;-80
2023/01/01 04:03:28;;;;;;;;;3.25;3.25;;;;;;;;5051534;28;9055;-79
2023/01/01 04:05:55;;;;;;;;;3.75;3.75;;;;;;;;5086791;28;8876;-79
2023/01/01 04:08:23;;;;;;;;;3.75;3.25;;;;;;;;5083686;28;8829;-80
2023/01/01 04:10:53;;;;;;;;;2.00;2.00;;;;;;;;5084019;28;9001;-79
2023/01/01 04:13:21;;;;;;;;;3.75;3.75;;;;;;;;5083827;28;8872;-79
2023/01/01 04:15:48;;;;;;;;;4.00;4.00;;;;;;;;5066960;28;8819;-79
2023/01/01 04:18:18;;;;;;;;;4.25;3.25;;;;;;;;5082144;28;8854;-79
2023/01/01 04:20:47;;;;;;;;;5.50;3.75;;;;;;;;5083431;28;8969;-80
2023/01/01 04:23:16;;;;;;;;;2.50;2.00;;;;;;;;5082913;28;8874;-79
2023/01/01 04:25:45;;;;;;;;;3.00;3.00;;;;;;;;5081089;28;8855;-80
2023/01/01 04:28:13;;;;;;;;;2.50;2.50;;;;;;;;5084086;28;9632;-79
2023/01/01 04:30:40;;;;;;;;;4.25;4.25;;;;;;;;5063541;28;8866;-79
2023/01/01 04:33:08;;;;;;;;;6.00;2.50;;;;;;;;5083394;28;8918;-80
2023/01/01 04:35:37;;;;;;;;;5.25;4.50;;;;;;;;5078314;28;8922;-79
2023/01/01 04:38:05;;;;;;;;;3.75;3.25;;;;;;;;5082121;28;8846;-78
2023/01/01 04:40:33;;;;;;;;;4.00;4.00;;;;;;;;5086612;28;8888;-79
2023/01/01 04:43:01;;;;;;;;;3.50;3.50;;;;;;;;5047835;28;8826;-79
2023/01/01 04:45:28;;;;;;;;;5.25;3.00;;;;;;;;5066142;28;9649;-78
2023/01/01 04:47:56;;;;;;;;;4.50;2.75;;;;;;;;5085844;28;8842;-80
2023/01/01 04:50:23;;;;;;;;;7.00;4.00;;;;;;;;5061900;28;8864;-79
2023/01/01 04:52:52;;;;;;;;;4.00;4.00;;;;;;;;5062167;28;8999;-79
2023/01/01 04:55:21;;;;;;;;;8.00;4.50;;;;;;;;5064416;28;8969;-79
2023/01/01 04:57:49;;;;;;;;;4.25;4.25;;;;;;;;5081669;28;9646;-79
2023/01/01 05:00:17;;;;;;;;;4.75;3.00;;;;;;;;5079601;28;9649;-80
2023/01/01 05:02:45;;;;;;;;;5.50;4.00;;;;;;;;5084887;28;8916;-79
2023/01/01 05:05:13;;;;;;;;;5.25;4.00;;;;;;;;5080841;28;8859;-79
2023/01/01 05:07:40;;;;;;;;;6.00;4.00;;;;;;;;5065571;28;8851;-80
2023/01/01 05:10:10;;;;;;;;;5.00;4.00;;;;;;;;5080035;28;8881;-79
2023/01/01 05:12:37;;;;;;;;;2.00;2.00;;;;;;;;5063686;28;8862;-80
2023/01/01 05:15:05;;;;;;;;;3.25;2.00;;;;;;;;5081647;28;9615;-80
2023/01/01 05:17:34;;;;;;;;;4.50;3.00;;;;;;;;5082571;28;8842;-79
2023/01/01 05:20:02;;;;;;;;;6.00;3.50;;;;;;;;5067130;28;8874;-79
2023/01/01 05:22:31;;;;;;;;;3.00;3.00;;;;;;;;5054686;28;8911;-80
2023/01/01 05:24:59;;;;;;;;;7.25;3.00;;;;;;;;5046660;28;10029;-80
2023/01/01 05:27:28;;;;;;;;;3.50;3.50;;;;;;;;5082035;28;8837;-80
2023/01/01 05:29:55;;;;;;;;;4.00;3.75;;;;;;;;5084507;28;8858;-79
2023/01/01 05:32:23;;;;;;;;;4.75;4.75;;;;;;;;5082184;28;8834;-80
2023/01/01 05:34:52;;;;;;;;;3.50;3.50;;;;;;;;5061902;28;8931;-80
2023/01/01 05:37:19;;;;;;;;;4.25;3.75;;;;;;;;5061428;28;8910;-79
2023/01/01 05:39:48;;;;;;;;;5.25;3.50;;;;;;;;5078871;28;9663;-80
2023/01/01 05:42:17;;;;;;;;;4.00;4.00;;;;;;;;5063848;28;8939;-78
2023/01/01 05:44:46;;;;;;;;;1.00;0.00;;;;;;;;5060733;28;8909;-80
2023/01/01 05:47:16;;;;;;;;;3.75;3.00;;;;;;;;5083816;28;9679;-79
2023/01/01 05:49:44;;;;;;;;;4.50;2.00;;;;;;;;5078890;28;8870;-79
2023/01/01 05:52:11;;;;;;;;;5.00;3.50;;;;;;;;5063559;28;8852;-80
2023/01/01 05:54:40;;;;;;;;;4.00;4.00;;;;;;;;5079016;28;9006;-80
2023/01/01 05:57:07;;;;;;;;;2.50;2.25;;;;;;;;5063463;28;8832;-80
2023/01/01 05:59:36;;;;;;;;;2.00;1.00;;;;;;;;5080307;28;8848;-80
2023/01/01 06:02:05;;;;;;;;;3.50;2.75;;;;;;;;5061303;28;8877;-80
2023/01/01 06:04:34;;;;;;;;;2.25;2.25;;;;;;;;5079910;28;8989;-79
2023/01/01 06:07:02;;;;;;;;;2.25;2.25;;;;;;;;5061534;28;8870;-80
2023/01/01 06:09:29;;;;;;;;;6.75;2.75;;;;;;;;5081468;28;8866;-80
2023/01/01 06:11:57;;;;;;;;;3.00;3.00;;;;;;;;5083012;28;8870;-80
2023/01/01 06:14:24;;;;;;;;;2.00;2.00;;;;;;;;5081249;28;8880;-79
2023/01/01 06:16:52;;;;;;;;;3.25;3.00;;;;;;;;5081559;28;8844;-79
2023/01/01 06:19:21;;;;;;;;;3.00;3.00;;;;;;;;5083354;28;8881;-80
2023/01/01 06:21:48;;;;;;;;;6.25;4.00;;;;;;;;5079906;28;9727;-79
2023/01/01 06:24:16;;;;;;;;;8.25;4.50;;;;;;;;5082553;28;8852;-80
2023/01/01 06:26:44;;;;;;;;;4.50;3.00;;;;;;;;5064325;28;8914;-80
2023/01/01 06:29:13;;;;;;;;;3.75;3.75;;;;;;;;5063544;28;8891;-79
2023/01/01 06:31:40;;;;;;;;;3.00;3.00;;;;;;;;5045396;28;8839;-80
2023/01/01 06:34:08;;;;;;;;;3.50;3.00;;;;;;;;5061642;28;8995;-79
2023/01/01 06:36:37;;;;;;;;;6.75;3.00;;;;;;;;5075618;28;8866;-80
2023/01/01 06:39:05;;;;;;;;;2.00;2.00;;;;;;;;5084119;28;8975;-80
2023/01/01 06:41:33;;;;;;;;;4.00;4.00;;;;;;;;5078272;28;8852;-80
2023/01/01 06:44:01;;;;;;;;;3.00;3.00;;;;;;;;5063679;28;8839;-80
2023/01/01 06:46:30;;;;;;;;;3.00;2.25;;;;;;;;5060470;28;8883;-80
2023/01/01 06:48:59;;;;;;;;;2.25;2.25;;;;;;;;5062243;28;8838;-80
2023/01/01 06:51:29;;;;;;;;;3.75;3.00;;;;;;;;5060909;28;8823;-80
2023/01/01 06:53:59;;;;;;;;;3.25;2.25;;;;;;;;5076203;28;10039;-80
2023/01/01 06:56:26;;;;;;;;;3.00;3.00;;;;;;;;5079712;28;8969;-80
2023/01/01 06:58:57;;;;;;;;;3.50;3.00;;;;;;;;5063325;28;9025;-79
2023/01/01 07:01:27;;;;;;;;;4.00;2.00;;;;;;;;5065100;28;8888;-80
2023/01/01 07:03:55;;;;;;;;;5.75;2.25;;;;;;;;5064876;28;8835;-80
2023/01/01 07:06:24;;;;;;;;;2.00;2.00;;;;;;;;5083661;28;8918;-80
2023/01/01 07:08:51;;;;;;;;;3.00;2.00;;;;;;;;5079258;28;9686;-79
2023/01/01 07:11:24;;;;;;;;;6.00;4.25;;;;;;;;5084732;28;9002;-79
2023/01/01 07:13:51;;;;;;;;;2.50;2.50;;;;;;;;5072399;28;9596;-80
2023/01/01 07:16:18;;;;;;;;;3.00;2.50;;;;;;;;5080886;28;8859;-79
2023/01/01 07:18:47;;;;;;;;;3.25;3.25;;;;;;;;5066460;28;8866;-79
2023/01/01 07:21:30;;;;;;;;;4.00;2.00;;;;;;;;5079010;28;8853;-79
2023/01/01 07:23:59;;;;;;;;;3.00;3.00;;;;;;;;5067603;28;8866;-80
2023/01/01 07:26:31;;;;;;;;;4.75;3.75;;;;;;;;5059928;28;8842;-79
2023/01/01 07:28:59;;;;;;;;;2.75;1.25;;;;;;;;5083965;28;8987;-80
2023/01/01 07:31:28;;;;;;;;;3.75;2.75;;;;;;;;5044561;28;9687;-80
2023/01/01 07:33:55;;;;;;;;;5.00;3.25;;;;;;;;5069615;28;8872;-80
2023/01/01 07:36:25;;;;;;;;;2.00;2.00;;;;;;;;5081918;28;8884;-79
2023/01/01 07:38:53;;;;;;;;;2.25;2.25;;;;;;;;5080370;28;8882;-81
2023/01/01 07:41:20;;;;;;;;;3.00;2.00;;;;;;;;5065655;28;8844;-80
2023/01/01 07:43:50;;;;;;;;;5.00;2.50;;;;;;;;5050998;28;8888;-80
2023/01/01 07:46:19;;;;;;;;;1.50;1.50;;;;;;;;5073977;28;8854;-80
2023/01/01 07:48:47;;;;;;;;;3.00;2.00;;;;;;;;5080440;28;8953;-80
2023/01/01 07:51:15;;;;;;;;;4.00;1.75;;;;;;;;5065442;28;8862;-79
2023/01/01 07:53:42;;;;;;;;;2.00;2.00;;;;;;;;5084684;28;8852;-80
2023/01/01 07:56:10;;;;;;;;;1.50;1.50;;;;;;;;5075973;28;8833;-80
2023/01/01 07:58:39;;;;;;;;;1.25;1.25;;;;;;;;5057365;28;8878;-80
2023/01/01 08:01:10;;;;;;;;;3.00;3.00;;;;;;;;5075400;28;8969;-80
2023/01/01 08:03:38;;;;;;;;;3.75;2.00;;;;;;;;5064695;28;8848;-80
2023/01/01 08:06:08;;;;;;;;;3.00;1.00;;;;;;;;5080580;28;9738;-80
2023/01/01 08:08:36;;;;;;;;;2.00;2.00;;;;;;;;5059724;28;8837;-80
2023/01/01 08:11:04;;;;;;;;;2.00;2.00;;;;;;;;5050302;28;8876;-81
2023/01/01 08:13:32;;;;;;;;;3.50;2.00;;;;;;;;5045060;28;8849;-80
2023/01/01 08:16:00;;;;;;;;;2.00;2.00;;;;;;;;5018777;28;8838;-80
2023/01/01 08:18:29;;;;;;;;;3.50;2.00;;;;;;;;5076756;28;8953;-79
2023/01/01 08:20:56;;;;;;;;;3.50;2.50;;;;;;;;5056632;28;8838;-80
2023/01/01 08:23:24;;;;;;;;;3.00;3.00;;;;;;;;5063944;28;8858;-80
2023/01/01 08:25:51;;;;;;;;;3.25;2.00;;;;;;;;5046161;28;9093;-80
2023/01/01 08:28:19;;;;;;;;;4.00;3.00;;;;;;;;5075804;28;8846;-79
2023/01/01 08:30:47;;;;;;;;;5.00;2.00;;;;;;;;5062976;28;8858;-80
2023/01/01 08:33:14;;;;;;;;;4.00;2.75;;;;;;;;5082736;28;8850;-79
2023/01/01 08:35:44;;;;;;;;;4.33;2.33;;;;;;;;5059751;28;8888;-79
2023/01/01 08:38:12;;;;;;;;;3.00;3.00;;;;;;;;5035818;28;9008;-80
2023/01/01 08:40:41;;;;;;;;;4.00;4.00;;;;;;;;4991690;28;8971;-79
2023/01/01 08:43:08;;;;;;;;;2.75;2.75;;;;;;;;5079132;28;8874;-79
2023/01/01 08:45:36;;;;;;;;;2.00;2.00;;;;;;;;5064313;28;8885;-80
2023/01/01 08:48:04;;;;;;;;;5.67;3.00;;;;;;;;5081253;28;8848;-81
2023/01/01 08:50:31;;;;;;;;;2.50;2.25;;;;;;;;5083861;28;8914;-80
2023/01/01 08:53:00;;;;;;;;;2.00;2.00;;;;;;;;5075832;28;8850;-80
2023/01/01 08:55:28;;;;;;;;;6.33;4.33;;;;;;;;5083239;28;9048;-80
2023/01/01 08:57:55;;;;;;;;;3.00;3.00;;;;;;;;5061287;28;9039;-80
2023/01/01 09:00:23;;;;;;;;;4.00;4.00;;;;;;;;5046198;28;8998;-80
2023/01/01 09:02:51;;;;;;;;;4.00;2.67;;;;;;;;5044627;28;9021;-80
2023/01/01 09:05:18;;;;;;;;;4.67;3.00;;;;;;;;5044179;28;9054;-80
2023/01/01 09:07:46;;;;;;;;;2.00;2.00;;;;;;;;5064112;28;8996;-80
2023/01/01 09:10:15;;;;;;;;;6.00;4.00;;;;;;;;5044807;28;10224;-79
2023/01/01 09:12:46;;;;;;;;;5.67;4.00;;;;;;;;5045273;28;8941;-80
2023/01/01 09:15:17;;;;;;;;;4.33;4.00;;;;;;;;5047694;28;8950;-80
2023/01/01 09:17:45;;;;;;;;;2.00;2.00;;;;;;;;5061014;28;9105;-80
2023/01/01 09:20:13;;;;;;;;;4.00;4.00;;;;;;;;5046346;28;8988;-80
2023/01/01 09:22:40;;;;;;;;;3.00;3.00;;;;;;;;5061318;28;8996;-80
2023/01/01 09:25:08;;;;;;;;;3.00;3.00;;;;;;;;5061836;28;9031;-80
2023/01/01 09:27:36;;;;;;;;;3.00;3.00;;;;;;;;5059110;28;9048;-79
2023/01/01 09:30:08;;;;;;;;;3.33;3.33;;;;;;;;5063045;28;9054;-82
2023/01/01 09:32:36;;;;;;;;;3.67;2.00;;;;;;;;5026501;28;9452;-80
2023/01/01 09:35:05;;;;;;;;;5.00;5.00;;;;;;;;5058477;28;9107;-80
2023/01/01 09:37:34;;;;;;;;;6.00;3.33;;;;;;;;5059430;28;9085;-79
2023/01/01 09:40:02;;;;;;;;;2.00;2.00;;;;;;;;5058738;28;9032;-80
2023/01/01 09:42:38;;;;;;;;;4.00;2.00;;;;;;;;5058637;28;9017;-79
2023/01/01 09:45:22;;;;;;;;;4.00;2.67;;;;;;;;5058869;28;8946;-79
2023/01/01 09:47:53;;;;;;;;;4.00;4.00;;;;;;;;5058080;28;9019;-78
2023/01/01 09:50:26;;;;;;;;;2.50;2.50;;;;;;;;5044926;28;8870;-80
2023/01/01 09:52:56;;;;;;;;;2.50;2.00;;;;;;;;5042699;28;8848;-82
2023/01/01 09:55:28;;;;;;;;;5.00;3.00;;;;;;;;5059851;28;8829;-82
2023/01/01 09:58:10;;;;;;;;;2.00;2.00;;;;;;;;5079938;28;9079;-82
2023/01/01 10:00:47;;;;;;;;;2.00;2.00;;;;;;;;5068318;28;8925;-80
2023/01/01 10:03:33;;;;;;;;;3.00;3.00;;;;;;;;5062831;28;8840;-79
2023/01/01 10:06:09;;;;;;;;;3.00;3.00;;;;;;;;5080388;28;9608;-81
2023/01/01 10:08:49;;;;;;;;;3.00;3.00;;;;;;;;5063294;28;9145;-84
2023/01/01 10:11:23;;;;;;;;;4.25;2.00;;;;;;;;5076539;28;8880;-81
2023/01/01 10:13:54;;;;;;;;;3.50;3.25;;;;;;;;5063388;28;8878;-82
2023/01/01 10:16:29;;;;;;;;;3.50;3.50;;;;;;;;5073527;28;8884;-79
2023/01/01 10:19:01;;;;;;;;;5.50;3.00;;;;;;;;5080184;28;8984;-80
2023/01/01 10:21:33;;;;;;;;;2.50;2.00;;;;;;;;5050216;28;9817;-77
2023/01/01 10:24:07;;;;;;;;;3.25;3.25;;;;;;;;5058701;28;8849;-84
2023/01/01 10:26:39;;;;;;;;;5.25;3.00;;;;;;;;5074994;28;8885;-81
2023/01/01 10:29:13;;;;;;;;;5.00;3.00;;;;;;;;5077489;28;8858;-80
2023/01/01 10:31:43;;;;;;;;;5.75;5.75;;;;;;;;5073834;28;8835;-80
2023/01/01 10:34:16;;;;;;;;;4.50;4.25;;;;;;;;5058184;28;8873;-80
2023/01/01 10:36:45;;;;;;;;;5.75;4.00;;;;;;;;5073495;28;9001;-79
2023/01/01 10:39:15;;;;;;;;;4.00;4.00;;;;;;;;5039759;28;9574;-78
2023/01/01 10:41:43;;;;;;;;;7.25;4.50;;;;;;;;5076471;28;8871;-78
2023/01/01 10:44:13;;;;;;;;;5.00;3.75;;;;;;;;5073987;28;8853;-78
2023/01/01 10:46:44;;;;;;;;;5.75;5.00;;;;;;;;5079931;28;8872;-78
2023/01/01 10:49:16;;;;;;;;;3.25;3.25;;;;;;;;5066608;28;8892;-79
2023/01/01 10:51:47;;;;;;;;;4.25;3.00;;;;;;;;5064262;28;8852;-77
2023/01/01 10:54:33;;;;;;;;;3.67;3.00;;;;;;;;5066100;28;8836;-76
2023/01/01 10:57:54;;;;;;;;;6.00;4.50;;;;;;;;5080031;28;8870;-75
2023/01/01 11:00:25;;;;;;;;;3.00;3.00;;;;;;;;5073449;28;8871;-77
2023/01/01 11:03:14;;;;;;;;;6.00;3.75;;;;;;;;5077044;28;8840;-77
2023/01/01 11:06:04;;;;;;;;;4.00;4.00;;;;;;;;5070827;28;8874;-75
2023/01/01 11:08:33;;;;;;;;;3.75;3.50;;;;;;;;5076382;28;8930;-76
2023/01/01 11:11:02;;;;;;;;;5.00;3.00;;;;;;;;5067343;28;8861;-75
2023/01/01 11:13:30;;;;;;;;;4.00;2.50;;;;;;;;5068008;28;9663;-78
2023/01/01 11:15:59;;;;;;;;;2.50;2.50;;;;;;;;5073127;28;8876;-76
2023/01/01 11:18:34;;;;;;;;;7.67;3.33;;;;;;;;5070392;28;8875;-78
2023/01/01 11:21:04;;;;;;;;;3.00;3.00;;;;;;;;5056338;28;9035;-79
2023/01/01 11:23:33;;;;;;;;;2.00;2.00;;;;;;;;5075593;28;8834;-78
2023/01/01 11:26:04;;;;;;;;;5.00;4.00;;;;;;;;5077419;28;8854;-78
2023/01/01 11:28:33;;;;;;;;;4.67;4.67;;;;;;;;5042753;28;8961;-79
2023/01/01 11:31:13;;;;;;;;;4.00;4.00;;;;;;;;5078208;28;8919;-75
2023/01/01 11:33:46;;;;;;;;;3.33;3.00;;;;;;;;5092359;28;9009;-76
2023/01/01 11:36:23;;;;;;;;;2.50;0.00;;;;;;;;5083789;28;8966;-77
2023/01/01 11:39:06;;;;;;;;;2.00;2.00;;;;;;;;5067002;28;8857;-77
2023/01/01 11:41:43;;;;;;;;;4.50;3.25;;;;;;;;5080663;28;9021;-76
2023/01/01 11:44:12;;;;;;;;;2.25;2.25;;;;;;;;5074616;28;8862;-75
2023/01/01 11:46:41;;;;;;;;;4.00;3.00;;;;;;;;5079503;28;8919;-75
2023/01/01 11:49:15;;;;;;;;;3.25;3.25;;;;;;;;5089039;28;8962;-76
2023/01/01 11:51:42;;;;;;;;;6.00;4.33;;;;;;;;5085104;28;8849;-75
2023/01/01 11:54:12;;;;;;;;;3.75;3.75;;;;;;;;5082320;28;8932;-80
2023/01/01 11:56:40;;;;;;;;;4.00;4.00;;;;;;;;5077111;28;8853;-77
2023/01/01 11:59:14;;;;;;;;;4.67;4.67;;;;;;;;5068242;28;8818;-77
2023/01/01 12:01:46;;;;;;;;;3.00;3.00;;;;;;;;5061147;28;8964;-77
2023/01/01 12:04:18;;;;;;;;;5.00;5.00;;;;;;;;5049463;28;9457;-77
2023/01/01 12:06:49;;;;;;;;;4.33;4.33;;;;;;;;5077685;28;8928;-77
2023/01/01 12:09:23;;;;;;;;;3.33;3.33;;;;;;;;5067621;28;9057;-77
2023/01/01 12:11:53;;;;;;;;;4.00;3.67;;;;;;;;5055039;28;9066;-77
2023/01/01 12:14:25;;;;;;;;;6.33;4.33;;;;;;;;5077324;28;9120;-77
2023/01/01 12:16:59;;;;;;;;;7.00;5.33;;;;;;;;5082162;28;9161;-79
2023/01/01 12:19:30;;;;;;;;;5.33;5.00;;;;;;;;5082095;28;9969;-78
2023/01/01 12:22:00;;;;;;;;;10.33;7.00;;;;;;;;5083855;28;9178;-77
2023/01/01 12:24:33;;;;;;;;;8.00;5.33;;;;;;;;5081008;28;9868;-77
2023/01/01 12:27:16;;;;;;;;;5.67;5.00;;;;;;;;5082199;28;9101;-74
2023/01/01 12:30:04;;;;;;;;;4.00;4.00;;;;;;;;5081101;28;9085;-76
2023/01/01 12:32:48;;;;;;;;;7.00;5.00;;;;;;;;5083156;28;8926;-76
2023/01/01 12:35:26;;;;;;;;;5.00;3.67;;;;;;;;5078848;28;9094;-75
2023/01/01 12:38:02;;;;;;;;;6.00;4.67;;;;;;;;5059228;28;10072;-76
2023/01/01 12:40:48;;;;;;;;;4.67;4.67;;;;;;;;5083831;28;9983;-77
2023/01/01 12:43:23;;;;;;;;;5.33;4.00;;;;;;;;5064425;28;9026;-79
2023/01/01 12:46:20;;;;;;;;;8.67;6.67;;;;;;;;5089961;28;9221;-80
2023/01/01 12:48:59;;;;;;;;;7.33;7.00;;;;;;;;5078196;28;9168;-76
2023/01/01 12:51:32;;;;;;;;;2.00;2.00;;;;;;;;5064582;28;9203;-76
2023/01/01 12:54:40;;;;;;;;;5.00;5.00;;;;;;;;5080257;28;9030;-78
2023/01/01 12:57:12;;;;;;;;;9.00;7.00;;;;;;;;5045609;28;9998;-77
2023/01/01 12:59:43;;;;;;;;;5.67;4.00;;;;;;;;5068540;28;9198;-76
2023/01/01 13:02:16;;;;;;;;;4.00;4.00;;;;;;;;5073077;28;9325;-79
2023/01/01 13:04:47;;;;;;;;;5.33;3.67;;;;;;;;5081019;28;9212;-78
2023/01/01 13:07:14;;;;;;;;;5.33;5.33;;;;;;;;5074019;28;9161;-75
2023/01/01 13:09:47;;;;;;;;;7.33;5.67;;;;;;;;5079114;28;9192;-78
2023/01/01 13:12:15;;;;;;;;;6.33;4.00;;;;;;;;5068007;28;9103;-80
2023/01/01 13:14:44;;;;;;;;;6.67;5.33;;;;;;;;5065248;28;9145;-79
2023/01/01 13:17:19;;;;;;;;;5.00;5.00;;;;;;;;5076785;28;9245;-78
2023/01/01 13:19:49;;;;;;;;;7.00;6.00;;;;;;;;5046275;28;9226;-77
2023/01/01 13:22:43;;;;;;;;;6.00;6.00;;;;;;;;5079366;28;9162;-77
2023/01/01 13:25:21;;;;;;;;;7.00;5.00;;;;;;;;5076338;28;9281;-78
2023/01/01 13:28:11;;;;;;;;;7.33;7.33;;;;;;;;5065016;28;9389;-76
2023/01/01 13:30:52;;;;;;;;;4.00;2.67;;;;;;;;5073209;28;9322;-76
2023/01/01 13:33:27;;;;;;;;;4.33;4.33;;;;;;;;5076538;28;10008;-76
2023/01/01 13:36:31;;;;;;;;;8.33;6.00;;;;;;;;5076594;28;9157;-76
2023/01/01 13:38:59;;;;;;;;;4.00;4.00;;;;;;;;5065839;28;9548;-76
2023/01/01 13:41:34;;;;;;;;;4.00;3.00;;;;;;;;5085342;28;9168;-76
2023/01/01 13:44:28;;;;;;;;;3.00;3.00;;;;;;;;5072335;28;9229;-74
2023/01/01 13:47:10;;;;;;;;;5.67;5.00;;;;;;;;5025240;28;9116;-75
2023/01/01 13:49:52;;;;;;;;;7.00;5.00;;;;;;;;5076115;28;9226;-75
2023/01/01 13:53:07;;;;;;;;;6.00;4.00;;;;;;;;5092156;27;9315;-76
2023/01/01 13:55:58;;;;;;;;;6.00;4.00;;;;;;;;5072792;28;9197;-75
2023/01/01 13:58:50;;;;;;;;;8.67;5.33;;;;;;;;5067847;28;9267;-76
2023/01/01 14:01:40;;;;;;;;;6.00;5.00;;;;;;;;5057450;28;9305;-74
2023/01/01 14:04:15;;;;;;;;;6.00;6.00;;;;;;;;5080273;28;9222;-76
2023/01/01 14:06:46;;;;;;;;;3.00;3.00;;;;;;;;5061171;28;9177;-77
2023/01/01 14:09:16;;;;;;;;;6.00;6.00;;;;;;;;5060502;28;9091;-78
2023/01/01 14:11:45;;;;;;;;;7.67;4.00;;;;;;;;5059547;28;9090;-76
2023/01/01 14:14:27;;;;;;;;;9.33;7.00;;;;;;;;5068027;28;9090;-75
2023/01/01 14:16:57;;;;;;;;;8.00;8.00;;;;;;;;5066955;28;9325;-77
2023/01/01 14:19:25;;;;;;;;;6.00;5.67;;;;;;;;5068664;28;9333;-76
2023/01/01 14:21:52;;;;;;;;;5.00;5.00;;;;;;;;5064227;28;9318;-76
2023/01/01 14:24:24;;;;;;;;;5.75;5.75;;;;;;;;5074741;28;9318;-82
2023/01/01 14:26:54;;;;;;;;;7.33;6.00;;;;;;;;5058269;28;9502;-79
2023/01/01 14:29:24;;;;;;;;;10.75;8.00;;;;;;;;5079637;28;10221;-77
2023/01/01 14:31:51;;;;;;;;;7.33;7.00;;;;;;;;5049392;28;9381;-77
2023/01/01 14:34:26;;;;;;;;;7.67;7.67;;;;;;;;5068933;28;9353;-76
2023/01/01 14:36:55;;;;;;;;;6.33;5.00;;;;;;;;5056608;28;9339;-77
2023/01/01 14:39:30;;;;;;;;;8.50;8.50;;;;;;;;5062826;28;9271;-77
2023/01/01 14:42:02;;;;;;;;;8.00;7.00;;;;;;;;5061242;28;9482;-76
2023/01/01 14:44:35;;;;;;;;;7.50;7.50;;;;;;;;5077278;28;9595;-76
2023/01/01 14:47:05;;;;;;;;;8.50;7.00;;;;;;;;5070662;28;9480;-76
2023/01/01 14:49:38;;;;;;;;;13.75;13.75;;;;;;;;5076214;28;9469;-75
2023/01/01 14:52:08;;;;;;;;;14.50;12.75;;;;;;;;5075101;28;9764;-76
2023/01/01 14:54:38;;;;;;;;;15.75;14.25;;;;;;;;5076618;28;9595;-76
2023/01/01 14:57:14;;;;;;;;;12.00;12.00;;;;;;;;5076436;28;9745;-76
2023/01/01 14:59:46;;;;;;;;;11.50;10.25;;;;;;;;5043644;28;11211;-76
2023/01/01 15:02:18;;;;;;;;;16.00;13.50;;;;;;;;5076421;28;10395;-77
2023/01/01 15:04:45;;;;;;;;;11.00;11.00;;;;;;;;5082966;28;10813;-76
2023/01/01 15:07:21;;;;;;;;;11.00;11.00;;;;;;;;5085025;28;9667;-76
2023/01/01 15:09:49;;;;;;;;;13.50;13.50;;;;;;;;5078339;28;9768;-76
2023/01/01 15:12:19;;;;;;;;;11.50;11.50;;;;;;;;5078550;28;9867;-76
2023/01/01 15:14:47;;;;;;;;;16.50;14.00;;;;;;;;5061482;28;9615;-78
2023/01/01 15:17:15;;;;;;;;;12.75;9.50;;;;;;;;5079031;28;9830;-75
2023/01/01 15:19:44;;;;;;;;;10.00;10.00;;;;;;;;5084768;28;9644;-77
2023/01/01 15:22:16;;;;;;;;;14.00;10.50;;;;;;;;5082178;28;9625;-78
2023/01/01 15:24:45;;;;;;;;;10.00;10.00;;;;;;;;5075233;28;9686;-77